sensor_id;sensor_type;location;lat;lon;timestamp;P1;durP1;ratioP1;P2;durP2;ratioP2
13461;SDS011;6803;45.264;5.468;2023-03-01T00:01:27;17.97;;;13.00;;
13461;SDS011;6803;45.264;5.468;2023-03-01T00:04:00;17.97;;;12.57;;
13461;SDS011;6803;45.264;5.468;2023-03-01T00:06:39;21.23;;;12.73;;
13461;SDS011;6803;45.264;5.468;2023-03-01T00:09:12;16.47;;;12.10;;
13461;SDS011;6803;45.264;5.468;2023-03-01T00:11:44;17.50;;;13.30;;
13461;SDS011;6803;45.264;5.468;2023-03-01T00:14:15;19.87;;;13.23;;
13461;SDS011;6803;45.264;5.468;2023-03-01T00:16:46;21.33;;;14.10;;
13461;SDS011;6803;45.264;5.468;2023-03-01T00:19:18;20.17;;;13.20;;
13461;SDS011;6803;45.264;5.468;2023-03-01T00:21:50;18.67;;;12.97;;
13461;SDS011;6803;45.264;5.468;2023-03-01T00:24:21;19.23;;;14.33;;
13461;SDS011;6803;45.264;5.468;2023-03-01T00:29:59;17.93;;;13.50;;
13461;SDS011;6803;45.264;5.468;2023-03-01T00:32:30;19.30;;;13.47;;
13461;SDS011;6803;45.264;5.468;2023-03-01T00:35:01;21.33;;;13.83;;
13461;SDS011;6803;45.264;5.468;2023-03-01T00:37:33;21.00;;;14.07;;
13461;SDS011;6803;45.264;5.468;2023-03-01T00:40:05;21.87;;;14.80;;
13461;SDS011;6803;45.264;5.468;2023-03-01T00:42:38;19.30;;;14.23;;
13461;SDS011;6803;45.264;5.468;2023-03-01T00:45:17;19.90;;;14.37;;
13461;SDS011;6803;45.264;5.468;2023-03-01T00:47:48;19.87;;;13.23;;
13461;SDS011;6803;45.264;5.468;2023-03-01T00:50:19;18.43;;;12.93;;
13461;SDS011;6803;45.264;5.468;2023-03-01T00:52:52;20.47;;;14.40;;
13461;SDS011;6803;45.264;5.468;2023-03-01T00:55:24;20.50;;;14.57;;
13461;SDS011;6803;45.264;5.468;2023-03-01T00:57:55;18.27;;;13.50;;
13461;SDS011;6803;45.264;5.468;2023-03-01T01:00:26;18.43;;;13.60;;
13461;SDS011;6803;45.264;5.468;2023-03-01T01:03:05;19.87;;;14.07;;
13461;SDS011;6803;45.264;5.468;2023-03-01T01:05:36;19.17;;;13.83;;
13461;SDS011;6803;45.264;5.468;2023-03-01T01:08:07;20.50;;;14.40;;
13461;SDS011;6803;45.264;5.468;2023-03-01T01:10:38;19.63;;;14.00;;
13461;SDS011;6803;45.264;5.468;2023-03-01T01:13:09;19.77;;;13.30;;
13461;SDS011;6803;45.264;5.468;2023-03-01T01:15:41;21.77;;;14.93;;
13461;SDS011;6803;45.264;5.468;2023-03-01T01:18:12;20.03;;;13.37;;
13461;SDS011;6803;45.264;5.468;2023-03-01T01:20:43;21.50;;;15.33;;
13461;SDS011;6803;45.264;5.468;2023-03-01T01:23:14;22.20;;;14.03;;
13461;SDS011;6803;45.264;5.468;2023-03-01T01:25:45;19.33;;;13.67;;
13461;SDS011;6803;45.264;5.468;2023-03-01T01:28:16;20.67;;;14.13;;
13461;SDS011;6803;45.264;5.468;2023-03-01T01:30:48;19.73;;;14.33;;
13461;SDS011;6803;45.264;5.468;2023-03-01T01:33:19;20.70;;;14.13;;
13461;SDS011;6803;45.264;5.468;2023-03-01T01:35:51;19.47;;;13.80;;
13461;SDS011;6803;45.264;5.468;2023-03-01T01:38:22;20.80;;;16.17;;
13461;SDS011;6803;45.264;5.468;2023-03-01T01:40:53;21.57;;;14.77;;
13461;SDS011;6803;45.264;5.468;2023-03-01T01:43:25;20.57;;;14.90;;
13461;SDS011;6803;45.264;5.468;2023-03-01T01:45:58;22.47;;;15.40;;
13461;SDS011;6803;45.264;5.468;2023-03-01T01:48:34;25.03;;;14.80;;
13461;SDS011;6803;45.264;5.468;2023-03-01T01:51:17;22.87;;;15.53;;
13461;SDS011;6803;45.264;5.468;2023-03-01T01:56:42;23.27;;;15.80;;
13461;SDS011;6803;45.264;5.468;2023-03-01T01:59:15;20.90;;;15.10;;
13461;SDS011;6803;45.264;5.468;2023-03-01T02:01:46;23.97;;;15.77;;
13461;SDS011;6803;45.264;5.468;2023-03-01T02:04:17;21.07;;;15.00;;
13461;SDS011;6803;45.264;5.468;2023-03-01T02:06:51;22.57;;;15.57;;
13461;SDS011;6803;45.264;5.468;2023-03-01T02:09:24;23.70;;;16.60;;
13461;SDS011;6803;45.264;5.468;2023-03-01T02:11:56;22.07;;;15.00;;
13461;SDS011;6803;45.264;5.468;2023-03-01T02:14:28;23.67;;;14.97;;
13461;SDS011;6803;45.264;5.468;2023-03-01T02:16:59;20.87;;;15.47;;
13461;SDS011;6803;45.264;5.468;2023-03-01T02:19:34;22.33;;;16.00;;
13461;SDS011;6803;45.264;5.468;2023-03-01T02:22:10;22.43;;;15.53;;
13461;SDS011;6803;45.264;5.468;2023-03-01T02:24:45;21.67;;;15.33;;
13461;SDS011;6803;45.264;5.468;2023-03-01T02:27:19;24.43;;;15.70;;
13461;SDS011;6803;45.264;5.468;2023-03-01T02:29:53;22.93;;;15.23;;
13461;SDS011;6803;45.264;5.468;2023-03-01T02:32:24;21.53;;;15.33;;
13461;SDS011;6803;45.264;5.468;2023-03-01T02:34:56;18.43;;;12.63;;
13461;SDS011;6803;45.264;5.468;2023-03-01T02:37:27;23.77;;;16.43;;
13461;SDS011;6803;45.264;5.468;2023-03-01T02:39:59;26.53;;;15.23;;
13461;SDS011;6803;45.264;5.468;2023-03-01T02:42:32;24.00;;;15.40;;
13461;SDS011;6803;45.264;5.468;2023-03-01T02:45:06;22.70;;;15.23;;
13461;SDS011;6803;45.264;5.468;2023-03-01T02:47:38;23.70;;;15.93;;
13461;SDS011;6803;45.264;5.468;2023-03-01T02:50:21;22.10;;;15.20;;
13461;SDS011;6803;45.264;5.468;2023-03-01T02:52:54;23.27;;;15.73;;
13461;SDS011;6803;45.264;5.468;2023-03-01T02:55:27;21.60;;;15.53;;
13461;SDS011;6803;45.264;5.468;2023-03-01T02:57:59;25.17;;;16.20;;
13461;SDS011;6803;45.264;5.468;2023-03-01T03:00:32;22.17;;;15.70;;
13461;SDS011;6803;45.264;5.468;2023-03-01T03:03:07;25.20;;;16.27;;
13461;SDS011;6803;45.264;5.468;2023-03-01T03:05:39;21.77;;;14.03;;
13461;SDS011;6803;45.264;5.468;2023-03-01T03:08:11;24.33;;;15.77;;
13461;SDS011;6803;45.264;5.468;2023-03-01T03:10:45;22.50;;;16.07;;
13461;SDS011;6803;45.264;5.468;2023-03-01T03:13:16;24.30;;;16.47;;
13461;SDS011;6803;45.264;5.468;2023-03-01T03:15:47;21.37;;;15.30;;
13461;SDS011;6803;45.264;5.468;2023-03-01T03:18:19;24.83;;;16.33;;
13461;SDS011;6803;45.264;5.468;2023-03-01T03:20:50;21.70;;;14.40;;
13461;SDS011;6803;45.264;5.468;2023-03-01T03:23:21;23.50;;;16.70;;
13461;SDS011;6803;45.264;5.468;2023-03-01T03:25:53;25.60;;;15.60;;
13461;SDS011;6803;45.264;5.468;2023-03-01T03:28:24;23.13;;;15.90;;
13461;SDS011;6803;45.264;5.468;2023-03-01T03:30:54;22.50;;;15.57;;
13461;SDS011;6803;45.264;5.468;2023-03-01T03:33:36;23.53;;;16.00;;
13461;SDS011;6803;45.264;5.468;2023-03-01T03:36:08;25.87;;;16.20;;
13461;SDS011;6803;45.264;5.468;2023-03-01T03:38:40;23.40;;;16.07;;
13461;SDS011;6803;45.264;5.468;2023-03-01T03:41:11;24.50;;;16.67;;
13461;SDS011;6803;45.264;5.468;2023-03-01T03:43:42;24.37;;;16.87;;
13461;SDS011;6803;45.264;5.468;2023-03-01T03:46:15;23.33;;;16.80;;
13461;SDS011;6803;45.264;5.468;2023-03-01T03:48:46;22.20;;;15.53;;
13461;SDS011;6803;45.264;5.468;2023-03-01T03:51:18;28.93;;;17.00;;
13461;SDS011;6803;45.264;5.468;2023-03-01T03:53:50;24.17;;;15.83;;
13461;SDS011;6803;45.264;5.468;2023-03-01T03:56:21;23.30;;;15.70;;
13461;SDS011;6803;45.264;5.468;2023-03-01T03:58:55;23.50;;;15.40;;
13461;SDS011;6803;45.264;5.468;2023-03-01T04:01:26;22.60;;;15.10;;
13461;SDS011;6803;45.264;5.468;2023-03-01T04:03:57;27.10;;;16.53;;
13461;SDS011;6803;45.264;5.468;2023-03-01T04:06:30;23.97;;;16.57;;
13461;SDS011;6803;45.264;5.468;2023-03-01T04:09:01;24.30;;;17.13;;
13461;SDS011;6803;45.264;5.468;2023-03-01T04:11:32;24.37;;;15.77;;
13461;SDS011;6803;45.264;5.468;2023-03-01T04:14:03;23.90;;;15.50;;
13461;SDS011;6803;45.264;5.468;2023-03-01T04:16:34;24.60;;;16.03;;
13461;SDS011;6803;45.264;5.468;2023-03-01T04:19:05;20.63;;;14.80;;
13461;SDS011;6803;45.264;5.468;2023-03-01T04:21:37;25.13;;;16.17;;
13461;SDS011;6803;45.264;5.468;2023-03-01T04:24:08;26.70;;;16.93;;
13461;SDS011;6803;45.264;5.468;2023-03-01T04:26:40;22.63;;;16.47;;
13461;SDS011;6803;45.264;5.468;2023-03-01T04:29:11;27.13;;;17.27;;
13461;SDS011;6803;45.264;5.468;2023-03-01T04:31:42;23.10;;;16.03;;
13461;SDS011;6803;45.264;5.468;2023-03-01T04:34:13;23.97;;;16.27;;
13461;SDS011;6803;45.264;5.468;2023-03-01T04:36:44;25.63;;;17.10;;
13461;SDS011;6803;45.264;5.468;2023-03-01T04:39:17;24.23;;;16.40;;
13461;SDS011;6803;45.264;5.468;2023-03-01T04:41:48;24.27;;;16.73;;
13461;SDS011;6803;45.264;5.468;2023-03-01T04:44:20;26.10;;;17.13;;
13461;SDS011;6803;45.264;5.468;2023-03-01T04:46:51;24.90;;;16.00;;
13461;SDS011;6803;45.264;5.468;2023-03-01T04:49:22;24.23;;;15.93;;
13461;SDS011;6803;45.264;5.468;2023-03-01T04:51:54;25.90;;;16.40;;
13461;SDS011;6803;45.264;5.468;2023-03-01T04:54:26;27.53;;;16.10;;
13461;SDS011;6803;45.264;5.468;2023-03-01T04:56:57;25.27;;;16.30;;
13461;SDS011;6803;45.264;5.468;2023-03-01T04:59:28;25.73;;;17.20;;
13461;SDS011;6803;45.264;5.468;2023-03-01T05:01:59;21.47;;;15.20;;
13461;SDS011;6803;45.264;5.468;2023-03-01T05:04:30;26.70;;;16.43;;
13461;SDS011;6803;45.264;5.468;2023-03-01T05:07:01;26.67;;;16.20;;
13461;SDS011;6803;45.264;5.468;2023-03-01T05:09:32;25.27;;;15.77;;
13461;SDS011;6803;45.264;5.468;2023-03-01T05:12:04;26.20;;;16.77;;
13461;SDS011;6803;45.264;5.468;2023-03-01T05:14:37;23.43;;;15.67;;
13461;SDS011;6803;45.264;5.468;2023-03-01T05:17:08;24.37;;;16.10;;
13461;SDS011;6803;45.264;5.468;2023-03-01T05:19:39;24.47;;;15.37;;
13461;SDS011;6803;45.264;5.468;2023-03-01T05:22:11;25.67;;;16.87;;
13461;SDS011;6803;45.264;5.468;2023-03-01T05:24:41;26.80;;;16.53;;
13461;SDS011;6803;45.264;5.468;2023-03-01T05:27:12;24.23;;;16.23;;
13461;SDS011;6803;45.264;5.468;2023-03-01T05:29:43;24.90;;;15.40;;
13461;SDS011;6803;45.264;5.468;2023-03-01T05:32:14;24.90;;;16.93;;
13461;SDS011;6803;45.264;5.468;2023-03-01T05:34:45;25.37;;;17.13;;
13461;SDS011;6803;45.264;5.468;2023-03-01T05:37:16;21.87;;;15.57;;
13461;SDS011;6803;45.264;5.468;2023-03-01T05:39:47;26.43;;;16.97;;
13461;SDS011;6803;45.264;5.468;2023-03-01T05:42:19;24.63;;;16.47;;
13461;SDS011;6803;45.264;5.468;2023-03-01T05:44:50;25.67;;;17.07;;
13461;SDS011;6803;45.264;5.468;2023-03-01T05:47:21;23.93;;;16.63;;
13461;SDS011;6803;45.264;5.468;2023-03-01T05:49:52;24.67;;;16.30;;
13461;SDS011;6803;45.264;5.468;2023-03-01T05:52:23;25.23;;;16.37;;
13461;SDS011;6803;45.264;5.468;2023-03-01T05:54:54;25.07;;;15.67;;
13461;SDS011;6803;45.264;5.468;2023-03-01T05:57:25;25.27;;;16.43;;
13461;SDS011;6803;45.264;5.468;2023-03-01T05:59:58;22.97;;;15.77;;
13461;SDS011;6803;45.264;5.468;2023-03-01T06:02:29;26.27;;;17.13;;
13461;SDS011;6803;45.264;5.468;2023-03-01T06:05:00;24.40;;;16.83;;
13461;SDS011;6803;45.264;5.468;2023-03-01T06:07:31;27.77;;;17.67;;
13461;SDS011;6803;45.264;5.468;2023-03-01T06:10:03;23.17;;;16.10;;
13461;SDS011;6803;45.264;5.468;2023-03-01T06:12:36;22.83;;;16.23;;
13461;SDS011;6803;45.264;5.468;2023-03-01T06:15:09;24.20;;;16.10;;
13461;SDS011;6803;45.264;5.468;2023-03-01T06:17:43;25.37;;;17.17;;
13461;SDS011;6803;45.264;5.468;2023-03-01T06:20:15;25.60;;;18.00;;
13461;SDS011;6803;45.264;5.468;2023-03-01T06:22:48;24.23;;;16.73;;
13461;SDS011;6803;45.264;5.468;2023-03-01T06:25:20;25.23;;;17.20;;
13461;SDS011;6803;45.264;5.468;2023-03-01T06:27:53;23.73;;;16.57;;
13461;SDS011;6803;45.264;5.468;2023-03-01T06:30:24;24.57;;;16.57;;
13461;SDS011;6803;45.264;5.468;2023-03-01T06:32:56;22.07;;;16.03;;
13461;SDS011;6803;45.264;5.468;2023-03-01T06:35:29;28.77;;;17.97;;
13461;SDS011;6803;45.264;5.468;2023-03-01T06:38:01;29.47;;;16.53;;
13461;SDS011;6803;45.264;5.468;2023-03-01T06:40:33;24.30;;;17.00;;
13461;SDS011;6803;45.264;5.468;2023-03-01T06:43:04;24.07;;;16.67;;
13461;SDS011;6803;45.264;5.468;2023-03-01T06:45:36;29.90;;;17.70;;
13461;SDS011;6803;45.264;5.468;2023-03-01T06:48:07;26.07;;;16.50;;
13461;SDS011;6803;45.264;5.468;2023-03-01T06:50:38;26.07;;;16.00;;
13461;SDS011;6803;45.264;5.468;2023-03-01T06:53:09;26.07;;;16.93;;
13461;SDS011;6803;45.264;5.468;2023-03-01T06:55:40;25.57;;;17.37;;
13461;SDS011;6803;45.264;5.468;2023-03-01T06:58:11;25.00;;;16.73;;
13461;SDS011;6803;45.264;5.468;2023-03-01T07:00:42;26.73;;;17.40;;
13461;SDS011;6803;45.264;5.468;2023-03-01T07:03:14;25.87;;;17.23;;
13461;SDS011;6803;45.264;5.468;2023-03-01T07:05:48;24.93;;;15.73;;
13461;SDS011;6803;45.264;5.468;2023-03-01T07:08:27;25.57;;;15.73;;
13461;SDS011;6803;45.264;5.468;2023-03-01T07:10:59;23.83;;;15.80;;
13461;SDS011;6803;45.264;5.468;2023-03-01T07:13:31;26.70;;;16.97;;
13461;SDS011;6803;45.264;5.468;2023-03-01T07:16:02;29.50;;;17.63;;
13461;SDS011;6803;45.264;5.468;2023-03-01T07:18:34;27.23;;;17.83;;
13461;SDS011;6803;45.264;5.468;2023-03-01T07:21:06;29.67;;;18.10;;
13461;SDS011;6803;45.264;5.468;2023-03-01T07:23:37;25.60;;;17.37;;
13461;SDS011;6803;45.264;5.468;2023-03-01T07:26:08;26.57;;;17.53;;
13461;SDS011;6803;45.264;5.468;2023-03-01T07:28:39;31.93;;;19.10;;
13461;SDS011;6803;45.264;5.468;2023-03-01T07:31:10;27.30;;;17.60;;
13461;SDS011;6803;45.264;5.468;2023-03-01T07:33:41;28.47;;;17.70;;
13461;SDS011;6803;45.264;5.468;2023-03-01T07:36:12;26.33;;;16.80;;
13461;SDS011;6803;45.264;5.468;2023-03-01T07:38:44;27.10;;;18.00;;
13461;SDS011;6803;45.264;5.468;2023-03-01T07:41:15;31.47;;;18.73;;
13461;SDS011;6803;45.264;5.468;2023-03-01T07:43:46;25.43;;;16.90;;
13461;SDS011;6803;45.264;5.468;2023-03-01T07:46:17;28.23;;;17.80;;
13461;SDS011;6803;45.264;5.468;2023-03-01T07:48:48;28.20;;;18.40;;
13461;SDS011;6803;45.264;5.468;2023-03-01T07:51:19;28.07;;;17.90;;
13461;SDS011;6803;45.264;5.468;2023-03-01T07:53:50;24.83;;;17.53;;
13461;SDS011;6803;45.264;5.468;2023-03-01T07:56:21;26.17;;;17.27;;
13461;SDS011;6803;45.264;5.468;2023-03-01T07:58:52;28.13;;;18.20;;
13461;SDS011;6803;45.264;5.468;2023-03-01T08:01:23;28.23;;;16.27;;
13461;SDS011;6803;45.264;5.468;2023-03-01T08:03:54;27.23;;;18.20;;
13461;SDS011;6803;45.264;5.468;2023-03-01T08:06:25;28.60;;;18.23;;
13461;SDS011;6803;45.264;5.468;2023-03-01T08:08:57;29.07;;;17.63;;
13461;SDS011;6803;45.264;5.468;2023-03-01T08:11:28;28.13;;;19.40;;
13461;SDS011;6803;45.264;5.468;2023-03-01T08:13:58;27.63;;;17.80;;
13461;SDS011;6803;45.264;5.468;2023-03-01T08:16:29;29.93;;;19.27;;
13461;SDS011;6803;45.264;5.468;2023-03-01T08:19:04;26.80;;;17.90;;
13461;SDS011;6803;45.264;5.468;2023-03-01T08:21:35;29.63;;;17.00;;
13461;SDS011;6803;45.264;5.468;2023-03-01T08:24:07;26.73;;;17.00;;
13461;SDS011;6803;45.264;5.468;2023-03-01T08:26:38;27.37;;;18.70;;
13461;SDS011;6803;45.264;5.468;2023-03-01T08:29:09;29.37;;;18.70;;
13461;SDS011;6803;45.264;5.468;2023-03-01T08:31:40;28.07;;;16.37;;
13461;SDS011;6803;45.264;5.468;2023-03-01T08:34:12;30.10;;;16.93;;
13461;SDS011;6803;45.264;5.468;2023-03-01T08:36:44;33.73;;;17.63;;
13461;SDS011;6803;45.264;5.468;2023-03-01T08:39:16;26.73;;;17.20;;
13461;SDS011;6803;45.264;5.468;2023-03-01T08:41:48;26.53;;;17.57;;
13461;SDS011;6803;45.264;5.468;2023-03-01T08:44:18;28.53;;;17.17;;
13461;SDS011;6803;45.264;5.468;2023-03-01T08:46:49;27.93;;;18.20;;
13461;SDS011;6803;45.264;5.468;2023-03-01T08:49:21;27.70;;;18.57;;
13461;SDS011;6803;45.264;5.468;2023-03-01T08:51:52;24.67;;;16.03;;
13461;SDS011;6803;45.264;5.468;2023-03-01T08:54:24;29.37;;;18.70;;
13461;SDS011;6803;45.264;5.468;2023-03-01T08:56:55;33.40;;;18.97;;
13461;SDS011;6803;45.264;5.468;2023-03-01T08:59:26;28.20;;;18.00;;
13461;SDS011;6803;45.264;5.468;2023-03-01T09:01:58;26.90;;;19.47;;
13461;SDS011;6803;45.264;5.468;2023-03-01T09:04:29;28.53;;;17.43;;
13461;SDS011;6803;45.264;5.468;2023-03-01T09:07:01;28.03;;;18.40;;
13461;SDS011;6803;45.264;5.468;2023-03-01T09:09:32;28.30;;;18.17;;
13461;SDS011;6803;45.264;5.468;2023-03-01T09:12:03;29.27;;;18.30;;
13461;SDS011;6803;45.264;5.468;2023-03-01T09:14:35;29.73;;;19.97;;
13461;SDS011;6803;45.264;5.468;2023-03-01T09:17:06;28.90;;;18.07;;
13461;SDS011;6803;45.264;5.468;2023-03-01T09:19:37;32.67;;;19.83;;
13461;SDS011;6803;45.264;5.468;2023-03-01T09:22:08;27.73;;;18.80;;
13461;SDS011;6803;45.264;5.468;2023-03-01T09:24:39;30.37;;;19.47;;
13461;SDS011;6803;45.264;5.468;2023-03-01T09:27:10;26.97;;;18.73;;
13461;SDS011;6803;45.264;5.468;2023-03-01T09:29:42;29.23;;;19.27;;
13461;SDS011;6803;45.264;5.468;2023-03-01T09:32:13;27.47;;;17.50;;
13461;SDS011;6803;45.264;5.468;2023-03-01T09:34:44;23.70;;;17.10;;
13461;SDS011;6803;45.264;5.468;2023-03-01T09:37:34;27.80;;;18.03;;
13461;SDS011;6803;45.264;5.468;2023-03-01T09:40:08;26.73;;;18.50;;
13461;SDS011;6803;45.264;5.468;2023-03-01T09:42:47;25.10;;;17.23;;
13461;SDS011;6803;45.264;5.468;2023-03-01T09:45:25;28.17;;;18.33;;
13461;SDS011;6803;45.264;5.468;2023-03-01T09:47:59;28.60;;;17.70;;
13461;SDS011;6803;45.264;5.468;2023-03-01T09:50:33;28.43;;;16.93;;
13461;SDS011;6803;45.264;5.468;2023-03-01T09:53:06;30.77;;;18.70;;
13461;SDS011;6803;45.264;5.468;2023-03-01T09:55:42;30.00;;;18.00;;
13461;SDS011;6803;45.264;5.468;2023-03-01T09:58:27;30.07;;;19.40;;
13461;SDS011;6803;45.264;5.468;2023-03-01T10:01:04;27.90;;;18.63;;
13461;SDS011;6803;45.264;5.468;2023-03-01T10:03:42;25.70;;;17.53;;
13461;SDS011;6803;45.264;5.468;2023-03-01T10:06:15;28.37;;;18.23;;
13461;SDS011;6803;45.264;5.468;2023-03-01T10:08:50;26.30;;;17.33;;
13461;SDS011;6803;45.264;5.468;2023-03-01T10:11:25;24.80;;;17.97;;
13461;SDS011;6803;45.264;5.468;2023-03-01T10:14:01;27.30;;;17.93;;
13461;SDS011;6803;45.264;5.468;2023-03-01T10:16:37;27.93;;;18.23;;
13461;SDS011;6803;45.264;5.468;2023-03-01T10:19:11;28.80;;;19.33;;
13461;SDS011;6803;45.264;5.468;2023-03-01T10:21:44;28.00;;;18.10;;
13461;SDS011;6803;45.264;5.468;2023-03-01T10:24:17;29.27;;;19.63;;
13461;SDS011;6803;45.264;5.468;2023-03-01T10:26:52;27.80;;;19.10;;
13461;SDS011;6803;45.264;5.468;2023-03-01T10:29:26;26.50;;;18.70;;
13461;SDS011;6803;45.264;5.468;2023-03-01T10:31:59;27.37;;;18.43;;
13461;SDS011;6803;45.264;5.468;2023-03-01T10:34:34;28.77;;;19.47;;
13461;SDS011;6803;45.264;5.468;2023-03-01T10:37:10;32.73;;;19.77;;
13461;SDS011;6803;45.264;5.468;2023-03-01T10:39:54;25.87;;;17.97;;
13461;SDS011;6803;45.264;5.468;2023-03-01T10:42:33;30.07;;;19.80;;
13461;SDS011;6803;45.264;5.468;2023-03-01T10:45:32;28.10;;;18.43;;
13461;SDS011;6803;45.264;5.468;2023-03-01T10:48:03;28.10;;;18.90;;
13461;SDS011;6803;45.264;5.468;2023-03-01T10:50:36;27.10;;;18.77;;
13461;SDS011;6803;45.264;5.468;2023-03-01T10:53:20;25.33;;;17.80;;
13461;SDS011;6803;45.264;5.468;2023-03-01T10:55:58;27.17;;;18.53;;
13461;SDS011;6803;45.264;5.468;2023-03-01T10:58:31;26.83;;;17.63;;
13461;SDS011;6803;45.264;5.468;2023-03-01T11:01:04;30.97;;;17.57;;
13461;SDS011;6803;45.264;5.468;2023-03-01T11:03:37;30.50;;;18.93;;
13461;SDS011;6803;45.264;5.468;2023-03-01T11:06:20;26.60;;;18.93;;
13461;SDS011;6803;45.264;5.468;2023-03-01T11:08:54;31.23;;;19.00;;
13461;SDS011;6803;45.264;5.468;2023-03-01T11:11:29;30.73;;;19.00;;
13461;SDS011;6803;45.264;5.468;2023-03-01T11:14:03;30.57;;;19.17;;
13461;SDS011;6803;45.264;5.468;2023-03-01T11:16:38;27.57;;;18.93;;
13461;SDS011;6803;45.264;5.468;2023-03-01T11:19:19;27.80;;;18.67;;
13461;SDS011;6803;45.264;5.468;2023-03-01T11:21:54;28.73;;;19.93;;
13461;SDS011;6803;45.264;5.468;2023-03-01T11:24:30;26.67;;;18.33;;
13461;SDS011;6803;45.264;5.468;2023-03-01T11:27:16;27.17;;;17.60;;
13461;SDS011;6803;45.264;5.468;2023-03-01T11:29:50;28.23;;;18.93;;
13461;SDS011;6803;45.264;5.468;2023-03-01T11:32:30;28.03;;;18.60;;
13461;SDS011;6803;45.264;5.468;2023-03-01T11:35:03;27.87;;;20.10;;
13461;SDS011;6803;45.264;5.468;2023-03-01T11:37:37;27.47;;;18.93;;
13461;SDS011;6803;45.264;5.468;2023-03-01T11:40:12;27.53;;;19.53;;
13461;SDS011;6803;45.264;5.468;2023-03-01T11:42:48;28.03;;;18.70;;
13461;SDS011;6803;45.264;5.468;2023-03-01T11:45:23;27.90;;;18.27;;
13461;SDS011;6803;45.264;5.468;2023-03-01T11:48:00;31.23;;;19.87;;
13461;SDS011;6803;45.264;5.468;2023-03-01T11:50:37;29.60;;;18.43;;
13461;SDS011;6803;45.264;5.468;2023-03-01T11:56:19;27.70;;;18.90;;
13461;SDS011;6803;45.264;5.468;2023-03-01T11:59:05;29.33;;;18.70;;
13461;SDS011;6803;45.264;5.468;2023-03-01T12:05:08;31.17;;;18.97;;
13461;SDS011;6803;45.264;5.468;2023-03-01T12:08:03;28.30;;;18.93;;
13461;SDS011;6803;45.264;5.468;2023-03-01T12:10:37;27.57;;;17.33;;
13461;SDS011;6803;45.264;5.468;2023-03-01T12:19:14;31.03;;;21.27;;
13461;SDS011;6803;45.264;5.468;2023-03-01T12:21:55;31.13;;;18.93;;
13461;SDS011;6803;45.264;5.468;2023-03-01T12:24:36;30.03;;;18.97;;
13461;SDS011;6803;45.264;5.468;2023-03-01T12:27:43;30.90;;;19.37;;
13461;SDS011;6803;45.264;5.468;2023-03-01T12:30:23;30.70;;;18.97;;
13461;SDS011;6803;45.264;5.468;2023-03-01T12:33:00;30.47;;;19.13;;
13461;SDS011;6803;45.264;5.468;2023-03-01T12:35:56;28.97;;;19.07;;
13461;SDS011;6803;45.264;5.468;2023-03-01T12:38:42;26.60;;;18.03;;
13461;SDS011;6803;45.264;5.468;2023-03-01T12:41:23;28.77;;;19.47;;
13461;SDS011;6803;45.264;5.468;2023-03-01T12:44:07;29.90;;;18.77;;
13461;SDS011;6803;45.264;5.468;2023-03-01T12:46:53;26.63;;;18.67;;
13461;SDS011;6803;45.264;5.468;2023-03-01T12:49:33;26.30;;;18.63;;
13461;SDS011;6803;45.264;5.468;2023-03-01T12:52:09;29.83;;;18.87;;
13461;SDS011;6803;45.264;5.468;2023-03-01T12:54:42;25.07;;;18.23;;
13461;SDS011;6803;45.264;5.468;2023-03-01T12:57:15;29.37;;;19.97;;
13461;SDS011;6803;45.264;5.468;2023-03-01T12:59:51;28.13;;;18.63;;
13461;SDS011;6803;45.264;5.468;2023-03-01T13:02:28;28.83;;;18.60;;
13461;SDS011;6803;45.264;5.468;2023-03-01T13:05:04;31.87;;;18.60;;
13461;SDS011;6803;45.264;5.468;2023-03-01T13:07:38;30.60;;;20.43;;
13461;SDS011;6803;45.264;5.468;2023-03-01T13:10:15;27.87;;;20.73;;
13461;SDS011;6803;45.264;5.468;2023-03-01T13:12:52;28.00;;;19.13;;
13461;SDS011;6803;45.264;5.468;2023-03-01T13:15:39;27.33;;;17.73;;
13461;SDS011;6803;45.264;5.468;2023-03-01T13:21:02;27.83;;;18.33;;
13461;SDS011;6803;45.264;5.468;2023-03-01T13:23:36;29.70;;;19.27;;
13461;SDS011;6803;45.264;5.468;2023-03-01T13:26:15;27.13;;;17.47;;
13461;SDS011;6803;45.264;5.468;2023-03-01T13:28:47;28.27;;;19.90;;
13461;SDS011;6803;45.264;5.468;2023-03-01T13:37:28;28.60;;;19.37;;
13461;SDS011;6803;45.264;5.468;2023-03-01T13:40:56;27.60;;;18.83;;
13461;SDS011;6803;45.264;5.468;2023-03-01T13:42:56;27.47;;;19.73;;
13461;SDS011;6803;45.264;5.468;2023-03-01T13:45:35;27.60;;;19.10;;
13461;SDS011;6803;45.264;5.468;2023-03-01T13:48:10;26.07;;;18.90;;
13461;SDS011;6803;45.264;5.468;2023-03-01T13:50:45;27.50;;;17.23;;
13461;SDS011;6803;45.264;5.468;2023-03-01T13:53:18;30.43;;;18.70;;
13461;SDS011;6803;45.264;5.468;2023-03-01T13:55:52;28.47;;;19.63;;
13461;SDS011;6803;45.264;5.468;2023-03-01T13:58:27;28.83;;;20.00;;
13461;SDS011;6803;45.264;5.468;2023-03-01T14:00:59;29.30;;;18.70;;
13461;SDS011;6803;45.264;5.468;2023-03-01T14:03:33;27.80;;;20.00;;
13461;SDS011;6803;45.264;5.468;2023-03-01T14:06:06;30.17;;;20.00;;
13461;SDS011;6803;45.264;5.468;2023-03-01T14:08:40;31.77;;;18.80;;
13461;SDS011;6803;45.264;5.468;2023-03-01T14:14:30;27.03;;;19.07;;
13461;SDS011;6803;45.264;5.468;2023-03-01T14:17:27;27.07;;;17.93;;
13461;SDS011;6803;45.264;5.468;2023-03-01T14:20:21;31.37;;;20.17;;
13461;SDS011;6803;45.264;5.468;2023-03-01T14:22:54;29.80;;;20.70;;
13461;SDS011;6803;45.264;5.468;2023-03-01T14:25:29;28.63;;;18.40;;
13461;SDS011;6803;45.264;5.468;2023-03-01T14:28:03;29.63;;;19.43;;
13461;SDS011;6803;45.264;5.468;2023-03-01T14:30:42;30.60;;;19.37;;
13461;SDS011;6803;45.264;5.468;2023-03-01T14:33:22;30.20;;;20.40;;
13461;SDS011;6803;45.264;5.468;2023-03-01T14:35:58;32.60;;;19.17;;
13461;SDS011;6803;45.264;5.468;2023-03-01T14:38:32;29.63;;;19.37;;
13461;SDS011;6803;45.264;5.468;2023-03-01T14:41:06;29.13;;;19.90;;
13461;SDS011;6803;45.264;5.468;2023-03-01T14:43:39;31.13;;;19.97;;
13461;SDS011;6803;45.264;5.468;2023-03-01T14:46:24;27.77;;;18.13;;
13461;SDS011;6803;45.264;5.468;2023-03-01T14:48:57;30.10;;;19.13;;
13461;SDS011;6803;45.264;5.468;2023-03-01T14:51:35;33.87;;;19.57;;
13461;SDS011;6803;45.264;5.468;2023-03-01T14:54:16;29.97;;;21.00;;
13461;SDS011;6803;45.264;5.468;2023-03-01T14:56:50;31.33;;;19.73;;
13461;SDS011;6803;45.264;5.468;2023-03-01T14:59:22;29.03;;;19.40;;
13461;SDS011;6803;45.264;5.468;2023-03-01T15:01:54;31.40;;;19.90;;
13461;SDS011;6803;45.264;5.468;2023-03-01T15:04:27;28.77;;;20.00;;
13461;SDS011;6803;45.264;5.468;2023-03-01T15:07:00;29.83;;;19.50;;
13461;SDS011;6803;45.264;5.468;2023-03-01T15:09:33;30.70;;;19.30;;
13461;SDS011;6803;45.264;5.468;2023-03-01T15:12:24;27.13;;;18.63;;
13461;SDS011;6803;45.264;5.468;2023-03-01T15:18:15;30.67;;;19.60;;
13461;SDS011;6803;45.264;5.468;2023-03-01T15:20:48;31.47;;;19.87;;
13461;SDS011;6803;45.264;5.468;2023-03-01T15:23:23;29.83;;;20.27;;
13461;SDS011;6803;45.264;5.468;2023-03-01T15:25:56;29.77;;;20.13;;
13461;SDS011;6803;45.264;5.468;2023-03-01T15:28:29;30.07;;;20.33;;
13461;SDS011;6803;45.264;5.468;2023-03-01T15:31:03;29.50;;;19.77;;
13461;SDS011;6803;45.264;5.468;2023-03-01T15:33:36;31.67;;;19.77;;
13461;SDS011;6803;45.264;5.468;2023-03-01T15:39:03;29.20;;;19.10;;
13461;SDS011;6803;45.264;5.468;2023-03-01T15:41:45;33.07;;;21.60;;
13461;SDS011;6803;45.264;5.468;2023-03-01T15:44:17;32.20;;;21.17;;
13461;SDS011;6803;45.264;5.468;2023-03-01T15:46:56;29.67;;;19.30;;
13461;SDS011;6803;45.264;5.468;2023-03-01T15:49:33;30.80;;;19.90;;